< < Back
Terminal Aerodrome Forecast


Current Version              Previous Versions:   1  2  3  4  5  6  7  8  9  

Terminal Aerodrome Forecast

891
FTUS42 KCAE 062338
TAFAGS
TAF
KAGS 062338Z 0700/0724 23008KT P6SM VCTS SCT050CB BKN100
     FM070100 VRB03KT P6SM FEW060 SCT150
     FM071000 VRB03KT 5SM BR SCT010 SCT150
     FM071500 23006KT P6SM SCT040 SCT200=

Latest METAR

546
SAUS70 KWBC 070400 RRC
MTRAGS
METAR KAGS 070353Z 00000KT 10SM CLR 22/21 A3008 RMK AO2 RAE09 SLP185
P0000 T02220211


USA.gov is the U.S. government's official web portal to all federal, state and local government web resources and services.